Time;durP1;ratioP1;P1;durP2;ratioP2;P2;SDS_P1;SDS_P2;PMS_P1;PMS_P2;Temp;Humidity;BMP_temperature;BMP_pressure;BME280_temperature;BME280_humidity;BME280_pressure;Samples;Min_cycle;Max_cycle;Signal;HPM_P1;HPM_P2
2021/10/18 10:59:51;;;;;;;;;;;;;;;;;;4901886;29;19928;-88
2021/10/18 11:02:26;;;;;;;;;;;;;;;;;;4864431;29;19934;-90
2021/10/18 11:04:54;;;;;;;;;;;;;;;;;;4847139;29;20456;-90
2021/10/18 11:07:37;;;;;;;;;;;;;;;;;;4847777;29;19939;-90
2021/10/18 11:10:06;;;;;;;;;;;;;;;;;;4844877;29;19932;-90
2021/10/18 11:12:37;;;;;;;;;;;;;;;;;;4861329;29;19935;-90
2021/10/18 11:15:08;;;;;;;;;;;;;;;;;;4845880;29;19928;-89
2021/10/18 11:17:37;;;;;;;;;;;;;;;;;;4854811;29;19932;-89
2021/10/18 11:20:06;;;;;;;;;;;;;;;;;;4843445;29;19932;-89
2021/10/18 11:22:35;;;;;;;;;;;;;;;;;;4848066;29;19936;-89
2021/10/18 11:25:05;;;;;;;;;;;;;;;;;;4848617;29;19935;-89
2021/10/18 11:27:34;;;;;;;;;;;;;;;;;;4869743;29;19935;-89
2021/10/18 11:30:03;;;;;;;;;;;;;;;;;;4840053;29;19930;-89
2021/10/18 11:32:35;;;;;;;;;;;;;;;;;;4848793;29;19934;-88
2021/10/18 11:35:13;;;;;;;;;;;;;;;;;;4848012;29;19928;-89
2021/10/18 11:38:06;;;;;;;;;;;;;;;;;;4846670;29;19940;-89
2021/10/18 11:40:35;;;;;;;;;;;;;;;;;;4837150;29;19932;-88
2021/10/18 11:43:04;;;;;;;;;;;;;;;;;;4851062;29;20301;-90
2021/10/18 11:45:34;;;;;;;;;;;;;;;;;;4852363;29;19935;-89
2021/10/18 11:48:04;;;;;;;;;;;;;;;;;;4846981;29;19928;-90
2021/10/18 11:50:36;;;;;;;;;;;;;;;;;;4840391;29;19928;-90
2021/10/18 11:53:11;;;;;;;;;;;;;;;;;;4843049;29;19935;-89
2021/10/18 11:55:40;;;;;;;;;;;;;;;;;;4837942;29;19928;-89
2021/10/18 11:58:10;;;;;;;;;;;;;;;;;;4846664;29;19928;-90
2021/10/18 12:00:42;;;;;;;;;;;;;;;;;;4844281;29;19928;-90
2021/10/18 12:03:12;;;;;;;;;;;;;;;;;;4851092;29;19934;-90
2021/10/18 12:05:42;;;;;;;;;;;;;;;;;;4847808;29;20381;-90
2021/10/18 12:08:11;;;;;;;;;;;;;;;;;;4862023;29;19954;-89
2021/10/18 12:10:40;;;;;;;;;;;;;;;;;;4845760;29;20366;-89
2021/10/18 12:13:09;;;;;;;;;;;;;;;;;;4849629;29;19935;-90
2021/10/18 12:15:39;;;;;;;;;;;;;;;;;;4844810;29;19928;-89
2021/10/18 12:18:08;;;;;;;;;;;;;;;;;;4847179;29;19932;-90
2021/10/18 12:20:40;;;;;;;;;;;;;;;;;;4839918;29;20376;-89
2021/10/18 12:23:09;;;;;;;;;;;;;;;;;;4847515;29;20400;-89
2021/10/18 12:25:38;;;;;;;;;;;;;;;;;;4861141;29;20397;-90
2021/10/18 12:28:22;;;;;;;;;;;;;;;;;;4854935;29;19939;-89
2021/10/18 12:30:51;;;;;;;;;;;;;;;;;;4837495;29;19935;-88
2021/10/18 12:33:19;;;;;;;;;;;;;;;;;;4847219;29;19931;-90
2021/10/18 12:35:58;;;;;;;;;;;;;;;;;;4846669;29;19979;-90
2021/10/18 12:38:26;;;;;;;;;;;;;;;;;;4855966;29;20022;-89
2021/10/18 12:41:15;;;;;;;;;;;;;;;;;;4846684;29;19927;-89
2021/10/18 12:43:44;;;;;;;;;;;;;;;;;;4839014;29;19929;-89
2021/10/18 12:46:16;;;;;;;;;;;;;;;;;;4858011;29;19928;-90
2021/10/18 12:48:55;;;;;;;;;;;;;;;;;;4846354;29;20329;-89
2021/10/18 12:51:35;;;;;;;;;;;;;;;;;;4842225;29;19938;-89
2021/10/18 12:54:26;;;;;;;;;;;;;;;;;;4847276;29;19935;-89
2021/10/18 12:56:58;;;;;;;;;;;;;;;;;;4855153;29;19928;-89
2021/10/18 12:59:27;;;;;;;;;;;;;;;;;;4849143;29;19935;-89
2021/10/18 13:02:14;;;;;;;;;;;;;;;;;;4841250;29;20420;-89
2021/10/18 13:04:57;;;;;;;;;;;;;;;;;;4845461;29;20304;-89
2021/10/18 13:07:26;;;;;;;;;;;;;;;;;;4850306;29;20220;-89
2021/10/18 13:09:55;;;;;;;;;;;;;;;;;;4840722;29;19935;-90
2021/10/18 13:12:25;;;;;;;;;;;;;;;;;;4836538;29;19944;-89
2021/10/18 13:14:54;;;;;;;;;;;;;;;;;;4854234;29;19928;-89
2021/10/18 13:17:22;;;;;;;;;;;;;;;;;;4857998;29;19928;-90
2021/10/18 13:19:50;;;;;;;;;;;;;;;;;;4858687;29;20710;-89
2021/10/18 13:22:19;;;;;;;;;;;;;;;;;;4841829;29;19939;-88
2021/10/18 13:24:49;;;;;;;;;;;;;;;;;;4853621;29;19936;-89
2021/10/18 13:27:17;;;;;;;;;;;;;;;;;;4842385;29;19939;-90
2021/10/18 13:29:45;;;;;;;;;;;;;;;;;;4838361;29;19936;-90
2021/10/18 13:32:14;;;;;;;;;;;;;;;;;;4844799;29;20440;-89
2021/10/18 13:34:43;;;;;;;;;;;;;;;;;;4860148;29;19927;-89
2021/10/18 13:37:12;;;;;;;;;;;;;;;;;;4840614;29;19939;-89
2021/10/18 13:39:40;;;;;;;;;;;;;;;;;;4846119;29;20308;-90
2021/10/18 13:42:11;;;;;;;;;;;;;;;;;;4851292;29;19939;-89
2021/10/18 13:44:40;;;;;;;;;;;;;;;;;;4845672;29;19932;-90
2021/10/18 13:47:08;;;;;;;;;;;;;;;;;;4846121;29;19927;-90
2021/10/18 13:49:37;;;;;;;;;;;;;;;;;;4853651;29;19935;-90
2021/10/18 13:52:05;;;;;;;;;;;;;;;;;;4845074;29;19935;-88
2021/10/18 13:54:34;;;;;;;;;;;;;;;;;;4851886;29;19931;-89
2021/10/18 13:57:02;;;;;;;;;;;;;;;;;;4845734;29;19936;-89
2021/10/18 13:59:34;;;;;;;;;;;;;;;;;;4845808;29;20397;-88
2021/10/18 14:02:04;;;;;;;;;;;;;;;;;;4836449;29;19928;-89
2021/10/18 14:04:32;;;;;;;;;;;;;;;;;;4842589;29;19928;-90
2021/10/18 14:07:01;;;;;;;;;;;;;;;;;;4833301;29;20316;-88
2021/10/18 14:09:30;;;;;;;;;;;;;;;;;;4846314;29;19932;-89
2021/10/18 14:11:58;;;;;;;;;;;;;;;;;;4841351;29;19935;-91
2021/10/18 14:14:26;;;;;;;;;;;;;;;;;;4844108;29;19935;-89
2021/10/18 14:16:56;;;;;;;;;;;;;;;;;;4854726;29;20397;-87
2021/10/18 14:19:24;;;;;;;;;;;;;;;;;;4846281;29;19927;-91
2021/10/18 14:21:53;;;;;;;;;;;;;;;;;;4846402;29;19928;-89
2021/10/18 14:24:21;;;;;;;;;;;;;;;;;;4845020;29;19928;-90
2021/10/18 14:26:49;;;;;;;;;;;;;;;;;;4846559;29;19932;-89
2021/10/18 14:29:18;;;;;;;;;;;;;;;;;;4846025;29;19928;-90
2021/10/18 14:31:46;;;;;;;;;;;;;;;;;;4846660;29;19928;-88
2021/10/18 14:34:16;;;;;;;;;;;;;;;;;;4846569;29;19935;-91
2021/10/18 14:36:44;;;;;;;;;;;;;;;;;;4849925;29;20313;-91
2021/10/18 14:39:13;;;;;;;;;;;;;;;;;;4849673;29;19939;-91
2021/10/18 14:41:42;;;;;;;;;;;;;;;;;;4865104;29;19944;-90
2021/10/18 14:44:11;;;;;;;;;;;;;;;;;;4848252;29;19929;-90
2021/10/18 14:46:39;;;;;;;;;;;;;;;;;;4846877;29;19928;-90
2021/10/18 14:49:08;;;;;;;;;;;;;;;;;;4849620;29;20300;-90
2021/10/18 14:51:37;;;;;;;;;;;;;;;;;;4833750;29;19929;-90
2021/10/18 14:54:07;;;;;;;;;;;;;;;;;;4845066;29;19927;-91
2021/10/18 14:56:36;;;;;;;;;;;;;;;;;;4889374;29;19922;-90
2021/10/18 14:59:05;;;;;;;;;;;;;;;;;;4889845;29;20045;-94
2021/10/18 15:01:34;;;;;;;;;;;;;;;;;;4874265;29;19920;-94
2021/10/18 15:04:02;;;;;;;;;;;;;;;;;;4884107;29;19932;-93
2021/10/18 15:06:31;;;;;;;;;;;;;;;;;;4834463;29;20415;-91
2021/10/18 15:09:03;;;;;;;;;;;;;;;;;;4831656;29;19935;-92
2021/10/18 15:11:32;;;;;;;;;;;;;;;;;;4839005;29;19935;-91
2021/10/18 15:14:00;;;;;;;;;;;;;;;;;;4849276;29;19931;-91
2021/10/18 15:16:29;;;;;;;;;;;;;;;;;;4842191;29;19952;-92
2021/10/18 15:18:57;;;;;;;;;;;;;;;;;;4849262;29;19928;-91
2021/10/18 15:21:26;;;;;;;;;;;;;;;;;;4864659;29;19932;-89
2021/10/18 15:23:55;;;;;;;;;;;;;;;;;;4849404;29;19943;-90
2021/10/18 15:26:24;;;;;;;;;;;;;;;;;;4860606;29;19935;-90
2021/10/18 15:28:56;;;;;;;;;;;;;;;;;;4849256;29;19928;-91
2021/10/18 15:31:24;;;;;;;;;;;;;;;;;;4848586;29;19935;-90
2021/10/18 15:33:52;;;;;;;;;;;;;;;;;;4849646;29;20423;-90
2021/10/18 15:36:21;;;;;;;;;;;;;;;;;;4849037;29;19939;-91
2021/10/18 15:38:50;;;;;;;;;;;;;;;;;;4849091;29;20400;-88
2021/10/18 15:41:19;;;;;;;;;;;;;;;;;;4848626;29;19928;-90
2021/10/18 15:43:49;;;;;;;;;;;;;;;;;;4849353;29;19943;-90
2021/10/18 15:46:17;;;;;;;;;;;;;;;;;;4849196;29;19928;-89
2021/10/18 15:48:45;;;;;;;;;;;;;;;;;;4849584;29;19928;-90
2021/10/18 15:51:13;;;;;;;;;;;;;;;;;;4849146;29;19935;-91
2021/10/18 15:53:42;;;;;;;;;;;;;;;;;;4849647;29;19928;-92
2021/10/18 15:56:13;;;;;;;;;;;;;;;;;;4849180;29;19954;-91
2021/10/18 15:58:41;;;;;;;;;;;;;;;;;;4849214;29;20316;-90
2021/10/18 16:01:12;;;;;;;;;;;;;;;;;;4849231;29;19927;-90
2021/10/18 16:03:41;;;;;;;;;;;;;;;;;;4849485;29;20304;-90
2021/10/18 16:06:09;;;;;;;;;;;;;;;;;;4849041;29;19927;-91
2021/10/18 16:08:37;;;;;;;;;;;;;;;;;;4848875;29;19951;-91
2021/10/18 16:11:05;;;;;;;;;;;;;;;;;;4849113;29;19928;-92
2021/10/18 16:13:35;;;;;;;;;;;;;;;;;;4853604;29;19939;-93
2021/10/18 16:16:04;;;;;;;;;;;;;;;;;;4849076;29;19935;-92
2021/10/18 16:18:33;;;;;;;;;;;;;;;;;;4848452;29;20404;-92
2021/10/18 16:21:02;;;;;;;;;;;;;;;;;;4848950;29;19951;-92
2021/10/18 16:23:30;;;;;;;;;;;;;;;;;;4848488;29;19927;-91
2021/10/18 16:25:58;;;;;;;;;;;;;;;;;;4848358;29;20318;-90
2021/10/18 16:28:26;;;;;;;;;;;;;;;;;;4849491;29;19935;-91
2021/10/18 16:30:55;;;;;;;;;;;;;;;;;;4848937;29;20317;-91
2021/10/18 16:33:25;;;;;;;;;;;;;;;;;;4849234;29;19928;-90
2021/10/18 16:35:54;;;;;;;;;;;;;;;;;;4850014;29;19928;-92
2021/10/18 16:38:27;;;;;;;;;;;;;;;;;;4849632;29;20283;-92
2021/10/18 16:40:56;;;;;;;;;;;;;;;;;;4849276;29;19935;-91
2021/10/18 16:43:26;;;;;;;;;;;;;;;;;;4848862;29;19927;-90
2021/10/18 16:45:54;;;;;;;;;;;;;;;;;;4848803;29;19927;-92
2021/10/18 16:48:23;;;;;;;;;;;;;;;;;;4849859;29;19935;-92
2021/10/18 16:50:51;;;;;;;;;;;;;;;;;;4851996;29;19932;-92
2021/10/18 16:53:23;;;;;;;;;;;;;;;;;;4851854;29;19932;-91
2021/10/18 16:55:52;;;;;;;;;;;;;;;;;;4866611;29;20475;-90
2021/10/18 16:58:21;;;;;;;;;;;;;;;;;;4849712;29;19934;-91
2021/10/18 17:00:56;;;;;;;;;;;;;;;;;;4852141;29;19928;-92
2021/10/18 17:03:25;;;;;;;;;;;;;;;;;;4856756;29;19935;-91
2021/10/18 17:05:54;;;;;;;;;;;;;;;;;;4871524;29;19928;-92
2021/10/18 17:08:26;;;;;;;;;;;;;;;;;;4858400;29;19935;-93
2021/10/18 17:10:56;;;;;;;;;;;;;;;;;;4856689;29;20293;-92
2021/10/18 17:13:24;;;;;;;;;;;;;;;;;;4855212;29;19935;-92
2021/10/18 17:15:52;;;;;;;;;;;;;;;;;;4856847;29;19928;-93
2021/10/18 17:18:21;;;;;;;;;;;;;;;;;;4853901;29;19939;-92
2021/10/18 17:20:50;;;;;;;;;;;;;;;;;;4851193;29;19935;-91
2021/10/18 17:23:19;;;;;;;;;;;;;;;;;;4864250;29;19935;-92
2021/10/18 17:25:48;;;;;;;;;;;;;;;;;;4852033;29;19936;-92
2021/10/18 17:28:16;;;;;;;;;;;;;;;;;;4850445;29;19928;-93
2021/10/18 17:30:45;;;;;;;;;;;;;;;;;;4850384;29;19928;-92
2021/10/18 17:33:13;;;;;;;;;;;;;;;;;;4849496;29;19932;-89
2021/10/18 17:35:42;;;;;;;;;;;;;;;;;;4847200;29;19939;-91
2021/10/18 17:38:11;;;;;;;;;;;;;;;;;;4847506;29;19928;-92
2021/10/18 17:40:39;;;;;;;;;;;;;;;;;;4847593;29;20412;-91
2021/10/18 17:43:09;;;;;;;;;;;;;;;;;;4847768;29;19934;-90
2021/10/18 17:45:38;;;;;;;;;;;;;;;;;;4850192;29;19928;-91
2021/10/18 17:48:06;;;;;;;;;;;;;;;;;;4834487;29;19928;-90
2021/10/18 17:50:34;;;;;;;;;;;;;;;;;;4828761;29;19932;-92
2021/10/18 17:53:03;;;;;;;;;;;;;;;;;;4831578;29;19932;-90
2021/10/18 17:55:31;;;;;;;;;;;;;;;;;;4837867;29;19931;-93
2021/10/18 17:58:00;;;;;;;;;;;;;;;;;;4849567;29;19927;-92
2021/10/18 18:00:36;;;;;;;;;;;;;;;;;;4848756;29;19928;-93
2021/10/18 18:03:11;;;;;;;;;;;;;;;;;;4849065;29;19935;-90
2021/10/18 18:05:40;;;;;;;;;;;;;;;;;;4847500;29;19928;-91
2021/10/18 18:08:19;;;;;;;;;;;;;;;;;;4847296;29;19928;-90
2021/10/18 18:10:52;;;;;;;;;;;;;;;;;;4849303;29;20308;-90
2021/10/18 18:13:21;;;;;;;;;;;;;;;;;;4866342;29;20397;-89
2021/10/18 18:15:50;;;;;;;;;;;;;;;;;;4851158;29;19928;-89
2021/10/18 18:18:19;;;;;;;;;;;;;;;;;;4850574;29;19927;-90
2021/10/18 18:20:47;;;;;;;;;;;;;;;;;;4850472;29;19931;-90
2021/10/18 18:23:18;;;;;;;;;;;;;;;;;;4850619;29;19927;-91
2021/10/18 18:25:46;;;;;;;;;;;;;;;;;;4852490;29;19928;-92
2021/10/18 18:28:14;;;;;;;;;;;;;;;;;;4851122;29;19983;-91
2021/10/18 18:30:44;;;;;;;;;;;;;;;;;;4852279;29;19934;-93
2021/10/18 18:33:14;;;;;;;;;;;;;;;;;;4852401;29;20312;-91
2021/10/18 18:35:45;;;;;;;;;;;;;;;;;;4851252;29;19935;-90
2021/10/18 18:38:15;;;;;;;;;;;;;;;;;;4851759;29;19928;-91
2021/10/18 18:40:44;;;;;;;;;;;;;;;;;;4852994;29;19931;-93
2021/10/18 18:43:12;;;;;;;;;;;;;;;;;;4851621;29;19928;-91
2021/10/18 18:45:41;;;;;;;;;;;;;;;;;;4850104;29;20312;-89
2021/10/18 18:48:10;;;;;;;;;;;;;;;;;;4852395;29;19932;-93
2021/10/18 18:50:39;;;;;;;;;;;;;;;;;;4859796;29;19928;-93
2021/10/18 18:53:11;;;;;;;;;;;;;;;;;;4853528;29;19936;-91
2021/10/18 18:58:57;;;;;;;;;;;;;;;;;;4862678;29;19928;-93
2021/10/18 19:01:25;;;;;;;;;;;;;;;;;;4851278;29;19932;-91
2021/10/18 19:07:28;;;;;;;;;;;;;;;;;;4868070;29;19928;-93
2021/10/18 19:09:57;;;;;;;;;;;;;;;;;;4864607;29;19939;-93
2021/10/18 19:31:04;;;;;;;;;;;;;;;;;;4742277;30;19918;-93
2021/10/18 19:33:32;;;;;;;;;;;;;;;;;;4808228;29;19935;-93
2021/10/18 19:36:01;;;;;;;;;;;;;;;;;;4830782;29;19935;-90
2021/10/18 19:38:29;;;;;;;;;;;;;;;;;;4816483;29;19936;-93
2021/10/18 19:40:57;;;;;;;;;;;;;;;;;;4820764;29;19928;-94
2021/10/18 19:43:26;;;;;;;;;;;;;;;;;;4813042;29;19928;-93
2021/10/18 19:46:02;;;;;;;;;;;;;;;;;;4834924;29;19928;-93
2021/10/18 19:51:35;;;;;;;;;;;;;;;;;;4843698;29;20336;-92
2021/10/18 19:54:13;;;;;;;;;;;;;;;;;;4855494;29;20434;-90
2021/10/18 19:56:55;;;;;;;;;;;;;;;;;;4852360;29;19939;-91
2021/10/18 19:59:24;;;;;;;;;;;;;;;;;;4850182;29;20305;-91
2021/10/18 20:01:53;;;;;;;;;;;;;;;;;;4850046;29;19928;-92
2021/10/18 20:04:24;;;;;;;;;;;;;;;;;;4857203;29;19928;-93
2021/10/18 20:07:57;;;;;;;;;;;;;;;;;;4893035;29;19938;-94
2021/10/18 20:10:26;;;;;;;;;;;;;;;;;;4870174;29;19924;-95
2021/10/18 20:12:54;;;;;;;;;;;;;;;;;;4873365;29;19918;-94
2021/10/18 20:15:25;;;;;;;;;;;;;;;;;;4873673;29;20034;-95
2021/10/18 20:17:55;;;;;;;;;;;;;;;;;;4873578;29;19923;-95
2021/10/18 20:20:26;;;;;;;;;;;;;;;;;;4872363;29;19928;-92
2021/10/18 20:22:54;;;;;;;;;;;;;;;;;;4865337;29;19911;-93
2021/10/18 20:25:26;;;;;;;;;;;;;;;;;;4867548;29;19920;-94
2021/10/18 20:35:05;;;;;;;;;;;;;;;;;;4878037;29;19935;-94
2021/10/18 20:37:58;;;;;;;;;;;;;;;;;;4877637;29;19928;-95
2021/10/18 20:40:36;;;;;;;;;;;;;;;;;;4862283;29;19928;-91
2021/10/18 20:43:13;;;;;;;;;;;;;;;;;;4858165;29;20512;-92
2021/10/18 20:45:49;;;;;;;;;;;;;;;;;;4841565;29;19928;-91
2021/10/18 20:48:18;;;;;;;;;;;;;;;;;;4859498;29;19934;-93
2021/10/18 20:50:47;;;;;;;;;;;;;;;;;;4845266;29;19928;-93
2021/10/18 20:56:57;;;;;;;;;;;;;;;;;;4884396;29;19918;-96
2021/10/18 21:03:04;;;;;;;;;;;;;;;;;;4808835;29;19917;-95
2021/10/18 21:05:53;;;;;;;;;;;;;;;;;;4819966;29;19920;-94
2021/10/18 21:08:41;;;;;;;;;;;;;;;;;;4852836;29;19932;-95
2021/10/18 21:11:29;;;;;;;;;;;;;;;;;;4849147;29;19930;-94
2021/10/18 21:14:30;;;;;;;;;;;;;;;;;;4851636;29;19916;-93
2021/10/18 21:18:00;;;;;;;;;;;;;;;;;;4865691;29;19935;-93
2021/10/18 21:20:31;;;;;;;;;;;;;;;;;;4851113;29;19926;-94
